createdAt,value
2022-11-17T10:53:12.863Z,1.27
2022-11-17T10:55:45.784Z,1.50
2022-11-17T11:55:38.180Z,1.40
2022-11-17T11:58:18.996Z,1.43
2022-11-17T12:01:05.740Z,1.30
2022-11-17T12:03:37.018Z,1.17
2022-11-17T12:56:33.011Z,1.20
2022-11-17T13:19:19.514Z,1.50
2022-11-17T14:06:04.791Z,1.00
2022-11-17T14:22:00.562Z,0.90
2022-11-17T14:25:06.775Z,1.00
2022-11-17T14:32:06.081Z,0.80
2022-11-17T14:36:30.200Z,1.23
2022-11-17T14:40:27.672Z,0.90
2022-11-17T14:44:08.799Z,1.10
2022-11-17T15:22:14.624Z,1.00
2022-11-17T15:24:42.852Z,1.20
2022-11-17T15:27:11.362Z,1.23
2022-11-17T15:29:39.624Z,1.17
2022-11-17T15:32:08.250Z,1.33
2022-11-17T15:34:46.085Z,1.57
2022-11-17T15:37:15.518Z,2.17
2022-11-17T15:39:43.556Z,1.70
2022-11-17T15:42:11.643Z,1.70
2022-11-17T15:44:41.044Z,2.00
2022-11-17T15:47:09.174Z,1.70
2022-11-17T15:49:37.180Z,2.60
2022-11-17T15:52:05.619Z,2.73
2022-11-17T15:54:34.918Z,2.90
2022-11-17T15:57:03.189Z,2.43
2022-11-17T15:59:31.228Z,2.70
2022-11-17T16:01:59.380Z,2.20
2022-11-17T16:04:27.491Z,2.33
2022-11-17T16:06:57.257Z,2.40
2022-11-17T16:09:25.369Z,1.77
2022-11-17T16:11:54.980Z,1.80
2022-11-17T16:14:23.215Z,1.63
2022-11-17T16:16:51.317Z,1.80
2022-11-17T16:19:19.498Z,2.00
2022-11-17T16:21:47.827Z,1.70
2022-11-17T16:24:16.036Z,2.10
2022-11-17T16:26:44.855Z,1.97
2022-11-17T16:29:15.285Z,2.10
2022-11-17T16:31:43.612Z,2.60
2022-11-17T16:34:13.580Z,2.40
2022-11-17T16:36:43.035Z,2.60
2022-11-17T16:39:14.489Z,2.40
2022-11-17T16:41:45.351Z,2.77
2022-11-17T16:44:16.688Z,2.57
2022-11-17T16:46:46.227Z,2.83
2022-11-17T16:49:16.459Z,2.90
2022-11-17T16:51:48.078Z,4.10
2022-11-17T16:54:16.874Z,4.03
2022-11-17T16:56:45.624Z,4.10
2022-11-17T16:59:15.856Z,3.43
2022-11-17T17:01:44.801Z,3.20
2022-11-17T17:04:13.769Z,2.77
2022-11-17T17:06:42.778Z,3.43
2022-11-17T17:09:12.260Z,2.70
